createdAt,value
2019-01-28T00:00:00.590Z,3.10
2019-01-28T00:05:06.556Z,3.20
2019-01-28T00:10:11.597Z,3.20
2019-01-28T00:15:17.593Z,3.20
2019-01-28T00:20:22.548Z,3.20
2019-01-28T00:25:27.566Z,3.30
2019-01-28T00:30:32.577Z,3.30
2019-01-28T00:35:37.552Z,3.30
2019-01-28T00:40:42.551Z,3.30
2019-01-28T00:45:47.529Z,3.30
2019-01-28T00:50:52.761Z,3.30
2019-01-28T00:55:58.021Z,3.30
2019-01-28T01:01:03.154Z,3.30
2019-01-28T01:06:08.318Z,3.20
2019-01-28T01:11:13.325Z,3.30
2019-01-28T01:16:18.413Z,3.30
2019-01-28T01:21:23.396Z,3.30
2019-01-28T01:26:28.411Z,3.30
2019-01-28T01:31:34.568Z,3.40
2019-01-28T01:36:39.608Z,3.40
2019-01-28T01:41:44.603Z,3.40
2019-01-28T01:46:49.610Z,3.50
2019-01-28T01:51:54.632Z,3.40
2019-01-28T01:56:59.612Z,3.40
2019-01-28T02:02:04.582Z,3.40
2019-01-28T02:07:11.500Z,3.40
2019-01-28T02:12:16.232Z,3.40
2019-01-28T02:17:21.229Z,3.40
2019-01-28T02:22:26.202Z,3.40
2019-01-28T02:27:31.173Z,3.50
2019-01-28T02:32:36.185Z,3.60
2019-01-28T02:37:41.223Z,3.50
2019-01-28T02:42:47.619Z,3.50
2019-01-28T02:47:52.622Z,3.40
2019-01-28T02:52:57.673Z,3.40
2019-01-28T02:58:02.656Z,3.40
2019-01-28T03:03:07.659Z,3.30
2019-01-28T03:08:12.653Z,3.30
2019-01-28T03:13:17.643Z,3.30
2019-01-28T03:18:24.393Z,3.30
2019-01-28T03:23:29.976Z,3.30
2019-01-28T03:28:36.708Z,3.30
2019-01-28T03:33:41.697Z,3.20
2019-01-28T03:38:46.696Z,3.10
2019-01-28T03:43:51.693Z,3.20
2019-01-28T03:48:56.726Z,3.10
2019-01-28T03:54:01.703Z,3.10
2019-01-28T03:59:06.812Z,3.10
2019-01-28T04:04:11.826Z,3.10
2019-01-28T04:09:16.889Z,3.10
2019-01-28T04:14:22.856Z,3.00
2019-01-28T04:19:27.875Z,3.00
2019-01-28T04:24:32.863Z,3.00
2019-01-28T04:29:38.026Z,3.00
2019-01-28T04:34:43.068Z,3.00
2019-01-28T04:39:48.074Z,2.90
2019-01-28T04:44:53.089Z,2.90
2019-01-28T04:49:58.248Z,2.90
2019-01-28T04:55:03.254Z,2.90
2019-01-28T05:00:13.588Z,2.90
2019-01-28T05:05:18.632Z,2.90
2019-01-28T05:10:23.674Z,2.90
2019-01-28T05:15:28.660Z,2.90
2019-01-28T05:20:35.517Z,2.90
2019-01-28T05:25:40.493Z,2.90
2019-01-28T05:30:45.725Z,2.80
2019-01-28T05:35:50.764Z,2.80
2019-01-28T05:40:55.824Z,2.80
2019-01-28T05:46:00.816Z,2.80
2019-01-28T05:51:07.116Z,2.80
2019-01-28T05:56:12.091Z,2.80
2019-01-28T06:01:17.099Z,2.80
2019-01-28T06:06:22.116Z,2.80
2019-01-28T06:11:27.113Z,2.80
2019-01-28T06:16:32.092Z,2.80
2019-01-28T06:21:37.096Z,2.80
2019-01-28T06:26:42.343Z,2.80
2019-01-28T06:31:47.304Z,2.80
2019-01-28T06:36:52.309Z,2.80
2019-01-28T06:41:57.367Z,2.80
2019-01-28T06:47:02.691Z,2.80
2019-01-28T06:52:08.993Z,2.80
2019-01-28T06:57:14.018Z,2.80
2019-01-28T07:02:19.005Z,2.80
2019-01-28T07:07:24.001Z,2.80
2019-01-28T07:12:30.003Z,2.80
2019-01-28T07:17:34.997Z,2.70
2019-01-28T07:22:40.024Z,2.70
2019-01-28T07:27:45.154Z,2.70
2019-01-28T07:32:50.173Z,2.70
2019-01-28T07:37:55.375Z,2.70
2019-01-28T07:43:00.329Z,2.70
2019-01-28T07:48:06.429Z,2.70
2019-01-28T07:53:11.462Z,2.70
2019-01-28T07:58:16.583Z,2.70
2019-01-28T08:03:21.788Z,2.70
2019-01-28T08:08:26.793Z,2.70
2019-01-28T08:13:31.773Z,2.80
2019-01-28T08:18:36.772Z,2.80
2019-01-28T08:23:41.754Z,2.90
2019-01-28T08:28:46.748Z,3.00
2019-01-28T08:33:51.782Z,3.00
2019-01-28T08:38:56.815Z,3.00
2019-01-28T08:44:01.819Z,3.00
2019-01-28T08:49:07.489Z,3.10
2019-01-28T08:54:12.440Z,3.20
2019-01-28T08:59:17.465Z,3.20
2019-01-28T09:04:22.463Z,3.30
2019-01-28T09:09:27.436Z,3.30
2019-01-28T09:14:33.544Z,3.40
2019-01-28T09:19:38.523Z,3.40
2019-01-28T09:24:43.548Z,3.50
2019-01-28T09:29:48.984Z,3.40
2019-01-28T09:34:53.972Z,3.40
2019-01-28T09:39:59.015Z,3.50
2019-01-28T09:45:04.320Z,3.50
2019-01-28T09:50:10.133Z,3.60
2019-01-28T09:55:15.359Z,3.80
2019-01-28T10:00:26.428Z,3.80
2019-01-28T10:05:31.636Z,3.90
2019-01-28T10:10:38.688Z,4.10
2019-01-28T10:15:43.704Z,4.30
2019-01-28T10:20:49.884Z,4.50
2019-01-28T10:25:57.723Z,4.60
2019-01-28T10:31:01.499Z,4.70
2019-01-28T10:36:06.841Z,4.70
2019-01-28T10:41:11.860Z,4.80
2019-01-28T10:46:16.858Z,4.80
2019-01-28T10:51:21.844Z,5.00
2019-01-28T10:56:26.857Z,5.00
2019-01-28T11:01:31.957Z,4.90
2019-01-28T11:06:36.995Z,5.10
2019-01-28T11:11:42.953Z,5.10
2019-01-28T11:16:48.097Z,5.10
2019-01-28T11:21:53.065Z,5.00
2019-01-28T11:26:58.062Z,4.80
2019-01-28T11:32:03.069Z,4.60
2019-01-28T11:37:08.239Z,4.40
2019-01-28T11:42:13.508Z,4.20
2019-01-28T11:47:18.607Z,4.00
2019-01-28T11:52:23.694Z,3.80
2019-01-28T11:57:28.849Z,3.70
2019-01-28T12:02:35.750Z,3.60
2019-01-28T12:07:40.724Z,3.50
2019-01-28T12:12:47.091Z,3.40
2019-01-28T12:17:52.460Z,3.40
2019-01-28T12:22:57.520Z,3.40
2019-01-28T12:28:02.659Z,3.40
2019-01-28T12:33:07.672Z,3.40
2019-01-28T12:38:12.702Z,3.40
2019-01-28T12:43:17.736Z,3.50
2019-01-28T12:48:23.204Z,3.50
2019-01-28T12:53:28.631Z,3.50
2019-01-28T12:58:33.641Z,3.40
2019-01-28T13:03:38.738Z,3.00
2019-01-28T13:08:43.730Z,2.80
2019-01-28T13:13:48.709Z,2.70
2019-01-28T13:18:53.737Z,2.70
2019-01-28T13:23:58.735Z,2.70
2019-01-28T13:29:03.733Z,2.60
2019-01-28T13:34:08.961Z,2.70
2019-01-28T13:39:13.978Z,2.70
2019-01-28T13:44:18.954Z,2.80
2019-01-28T13:49:23.992Z,2.80
2019-01-28T13:54:28.986Z,2.90
2019-01-28T13:59:34.168Z,2.90
2019-01-28T14:04:39.208Z,2.90
2019-01-28T14:09:44.220Z,2.70
2019-01-28T14:14:49.238Z,2.70
2019-01-28T14:19:54.577Z,2.60
2019-01-28T14:24:59.601Z,2.50
2019-01-28T14:30:06.703Z,2.50
2019-01-28T14:35:11.769Z,2.40
2019-01-28T14:40:19.176Z,2.50
2019-01-28T14:45:24.415Z,2.40
2019-01-28T14:50:31.429Z,2.40
2019-01-28T14:55:36.720Z,2.40
2019-01-28T15:00:43.164Z,2.40
2019-01-28T15:05:48.151Z,2.40
2019-01-28T15:10:53.201Z,2.30
2019-01-28T15:15:58.234Z,2.00
2019-01-28T15:21:03.360Z,1.60
2019-01-28T15:26:08.761Z,1.30
2019-01-28T15:31:13.735Z,1.40
2019-01-28T15:36:18.768Z,1.50
2019-01-28T15:41:23.755Z,1.70
2019-01-28T15:46:29.060Z,1.80
2019-01-28T15:51:34.042Z,1.80
2019-01-28T15:56:39.042Z,1.90
2019-01-28T16:01:47.387Z,1.90
2019-01-28T16:06:52.373Z,1.90
2019-01-28T16:11:57.367Z,1.90
2019-01-28T16:17:02.364Z,2.00
2019-01-28T16:22:07.996Z,1.90
2019-01-28T16:27:12.957Z,1.90
2019-01-28T16:32:17.943Z,2.00
2019-01-28T16:37:22.973Z,1.90
2019-01-28T16:42:27.997Z,1.80
2019-01-28T16:47:32.985Z,1.80
2019-01-28T16:52:37.976Z,1.80
2019-01-28T16:57:43.062Z,1.70
2019-01-28T17:02:48.117Z,1.60
2019-01-28T17:07:53.323Z,1.50
2019-01-28T17:12:58.275Z,1.50
2019-01-28T17:18:04.581Z,1.40
2019-01-28T17:23:09.567Z,1.30
2019-01-28T17:28:14.553Z,1.30
2019-01-28T17:33:19.555Z,1.20
2019-01-28T17:38:24.579Z,1.20
2019-01-28T17:43:29.585Z,1.10
2019-01-28T17:48:34.556Z,1.00
2019-01-28T17:53:39.533Z,0.90
2019-01-28T17:58:44.788Z,0.90
2019-01-28T18:03:50.396Z,0.80
2019-01-28T18:08:55.447Z,0.70
2019-01-28T18:14:00.447Z,0.50
2019-01-28T18:19:05.451Z,0.50
2019-01-28T18:24:10.440Z,0.40
2019-01-28T18:29:15.468Z,0.30
2019-01-28T18:34:20.443Z,0.10
2019-01-28T18:39:25.470Z,0.00
2019-01-28T18:44:30.472Z,-0.10
2019-01-28T18:49:35.474Z,-0.30
2019-01-28T18:54:40.760Z,-0.30
2019-01-28T18:59:45.965Z,-0.20
2019-01-28T19:04:50.964Z,-0.10
2019-01-28T19:10:11.458Z,0.10
2019-01-28T19:15:41.425Z,0.20
2019-01-28T19:20:54.435Z,0.20
2019-01-28T19:25:59.432Z,0.20
2019-01-28T19:31:04.775Z,0.20
2019-01-28T19:36:09.775Z,0.30
2019-01-28T19:41:14.870Z,0.40
2019-01-28T19:46:20.570Z,0.40
2019-01-28T19:51:25.576Z,0.50
2019-01-28T19:56:30.563Z,0.60
2019-01-28T20:01:35.573Z,0.70
2019-01-28T20:06:40.547Z,0.70
2019-01-28T20:11:45.537Z,0.70
2019-01-28T20:16:50.551Z,0.70
2019-01-28T20:21:55.537Z,0.60
2019-01-28T20:27:00.529Z,0.70
2019-01-28T20:32:05.701Z,0.80
2019-01-28T20:37:10.693Z,0.80
2019-01-28T20:42:15.679Z,0.90
2019-01-28T20:47:20.678Z,0.90
2019-01-28T20:52:25.678Z,0.80
2019-01-28T20:57:30.678Z,0.80
2019-01-28T21:02:35.640Z,0.80
2019-01-28T21:07:40.675Z,0.70
2019-01-28T21:12:45.729Z,0.90
2019-01-28T21:17:51.179Z,1.20
2019-01-28T21:22:56.140Z,1.30
2019-01-28T21:28:01.148Z,1.10
2019-01-28T21:33:06.341Z,1.00
2019-01-28T21:38:14.270Z,0.90
2019-01-28T21:43:19.250Z,0.80
2019-01-28T21:48:24.220Z,0.80
2019-01-28T21:53:29.235Z,0.60
2019-01-28T21:58:34.235Z,0.60
2019-01-28T22:03:39.224Z,0.70
2019-01-28T22:08:44.198Z,0.80
2019-01-28T22:13:49.205Z,0.80
2019-01-28T22:18:54.206Z,0.70
2019-01-28T22:23:59.201Z,0.70
2019-01-28T22:29:04.700Z,0.70
2019-01-28T22:34:09.707Z,0.60
2019-01-28T22:39:14.842Z,0.40
2019-01-28T22:44:19.886Z,0.30
2019-01-28T22:49:24.883Z,0.30
2019-01-28T22:54:29.871Z,0.30
2019-01-28T22:59:34.864Z,0.20
2019-01-28T23:04:42.734Z,0.20
2019-01-28T23:09:47.747Z,0.10
2019-01-28T23:14:52.727Z,0.00
2019-01-28T23:19:58.143Z,0.10
2019-01-28T23:25:03.200Z,0.10
2019-01-28T23:30:10.255Z,0.00
2019-01-28T23:35:15.661Z,-0.10
2019-01-28T23:40:21.955Z,0.00
2019-01-28T23:45:27.716Z,0.10
2019-01-28T23:50:32.847Z,0.40
2019-01-28T23:55:37.824Z,0.70
